sensor_id;sensor_type;location;lat;lon;timestamp;pressure;altitude;pressure_sealevel;temperature;humidity
62111;BME280;48102;47.526;19.072;2022-08-19T03:36:48;99855.72;;;21.98;74.04
62111;BME280;48102;47.526;19.072;2022-08-19T03:39:51;99859.91;;;22.00;72.60
62111;BME280;48102;47.526;19.072;2022-08-19T03:42:54;99862.47;;;22.10;73.31
62111;BME280;48102;47.526;19.072;2022-08-19T03:46:03;99863.47;;;22.09;73.65
62111;BME280;48102;47.526;19.072;2022-08-19T03:49:06;99872.00;;;22.04;73.98
62111;BME280;48102;47.526;19.072;2022-08-19T03:52:10;99865.59;;;21.97;74.23
62111;BME280;48102;47.526;19.072;2022-08-19T03:55:13;99862.91;;;21.97;72.97
62111;BME280;48102;47.526;19.072;2022-08-19T03:58:16;99868.66;;;22.02;73.12
62111;BME280;48102;47.526;19.072;2022-08-19T04:01:21;99868.19;;;22.07;72.48
62111;BME280;48102;47.526;19.072;2022-08-19T04:04:38;99880.66;;;22.16;72.19
62111;BME280;48102;47.526;19.072;2022-08-19T04:07:41;99871.28;;;22.20;71.08
62111;BME280;48102;47.526;19.072;2022-08-19T04:10:44;99875.44;;;22.23;72.98
62111;BME280;48102;47.526;19.072;2022-08-19T04:13:47;99881.66;;;22.23;73.48
62111;BME280;48102;47.526;19.072;2022-08-19T04:16:51;99891.44;;;22.33;70.83
62111;BME280;48102;47.526;19.072;2022-08-19T04:19:54;99891.81;;;22.46;69.58
62111;BME280;48102;47.526;19.072;2022-08-19T04:22:57;99890.62;;;22.48;70.44
62111;BME280;48102;47.526;19.072;2022-08-19T04:26:00;99909.97;;;22.60;69.68
62111;BME280;48102;47.526;19.072;2022-08-19T04:29:08;99905.25;;;22.62;69.24
62111;BME280;48102;47.526;19.072;2022-08-19T04:32:14;99901.25;;;22.66;70.40
62111;BME280;48102;47.526;19.072;2022-08-19T04:35:17;99900.25;;;22.67;70.58
62111;BME280;48102;47.526;19.072;2022-08-19T04:38:26;99895.22;;;22.72;71.28
62111;BME280;48102;47.526;19.072;2022-08-19T04:41:28;99898.91;;;22.79;70.92
62111;BME280;48102;47.526;19.072;2022-08-19T04:44:50;99906.12;;;22.87;69.57
62111;BME280;48102;47.526;19.072;2022-08-19T04:47:55;99911.06;;;23.00;68.17
62111;BME280;48102;47.526;19.072;2022-08-19T04:51:21;99907.22;;;23.19;66.75
62111;BME280;48102;47.526;19.072;2022-08-19T04:54:25;99909.41;;;23.23;67.54
62111;BME280;48102;47.526;19.072;2022-08-19T04:57:40;99902.31;;;23.31;66.92
62111;BME280;48102;47.526;19.072;2022-08-19T05:00:43;99899.94;;;23.36;66.89
62111;BME280;48102;47.526;19.072;2022-08-19T05:03:46;99897.25;;;23.44;66.50
62111;BME280;48102;47.526;19.072;2022-08-19T05:06:49;99903.13;;;23.47;65.81
62111;BME280;48102;47.526;19.072;2022-08-19T05:09:58;99909.53;;;23.54;65.61
62111;BME280;48102;47.526;19.072;2022-08-19T05:13:01;99910.34;;;23.63;65.26
62111;BME280;48102;47.526;19.072;2022-08-19T05:16:04;99904.63;;;23.74;63.61
62111;BME280;48102;47.526;19.072;2022-08-19T05:19:07;99913.88;;;23.88;63.66
62111;BME280;48102;47.526;19.072;2022-08-19T05:22:28;99908.78;;;24.01;63.17
62111;BME280;48102;47.526;19.072;2022-08-19T05:25:39;99912.25;;;24.18;61.92
62111;BME280;48102;47.526;19.072;2022-08-19T05:28:42;99910.28;;;24.35;60.33
62111;BME280;48102;47.526;19.072;2022-08-19T05:31:47;99913.75;;;24.52;59.62
62111;BME280;48102;47.526;19.072;2022-08-19T05:34:51;99916.25;;;24.62;59.21
62111;BME280;48102;47.526;19.072;2022-08-19T05:37:54;99912.44;;;24.79;59.49
62111;BME280;48102;47.526;19.072;2022-08-19T05:41:00;99915.38;;;24.92;60.16
62111;BME280;48102;47.526;19.072;2022-08-19T05:44:04;99913.06;;;25.04;59.33
62111;BME280;48102;47.526;19.072;2022-08-19T05:47:13;99911.31;;;25.19;58.39
62111;BME280;48102;47.526;19.072;2022-08-19T05:50:17;99914.44;;;25.31;57.46
62111;BME280;48102;47.526;19.072;2022-08-19T05:53:20;99916.13;;;25.47;58.09
62111;BME280;48102;47.526;19.072;2022-08-19T05:56:23;99928.97;;;25.60;56.36
62111;BME280;48102;47.526;19.072;2022-08-19T05:59:26;99922.78;;;25.74;57.31
62111;BME280;48102;47.526;19.072;2022-08-19T06:02:29;99912.94;;;25.81;56.34
62111;BME280;48102;47.526;19.072;2022-08-19T06:05:33;99922.44;;;25.92;55.20
62111;BME280;48102;47.526;19.072;2022-08-19T06:08:53;99921.78;;;26.05;55.74
62111;BME280;48102;47.526;19.072;2022-08-19T06:11:58;99930.63;;;26.13;54.82
62111;BME280;48102;47.526;19.072;2022-08-19T06:15:05;99925.13;;;26.21;55.22
62111;BME280;48102;47.526;19.072;2022-08-19T06:18:09;99920.16;;;26.40;54.78
62111;BME280;48102;47.526;19.072;2022-08-19T06:21:11;99922.22;;;26.52;53.20
62111;BME280;48102;47.526;19.072;2022-08-19T06:24:16;99927.13;;;26.64;53.13
62111;BME280;48102;47.526;19.072;2022-08-19T06:27:20;99921.47;;;26.80;53.37
62111;BME280;48102;47.526;19.072;2022-08-19T06:30:23;99933.47;;;26.92;52.28
62111;BME280;48102;47.526;19.072;2022-08-19T06:33:25;99923.72;;;27.13;51.65
62111;BME280;48102;47.526;19.072;2022-08-19T06:36:41;99901.34;;;27.25;51.09
62111;BME280;48102;47.526;19.072;2022-08-19T06:39:45;99901.91;;;27.42;52.05
62111;BME280;48102;47.526;19.072;2022-08-19T06:42:48;99904.72;;;27.56;50.24
62111;BME280;48102;47.526;19.072;2022-08-19T06:45:56;99911.53;;;27.73;49.21
62111;BME280;48102;47.526;19.072;2022-08-19T06:49:00;99908.75;;;27.94;48.99
62111;BME280;48102;47.526;19.072;2022-08-19T06:52:04;99912.19;;;28.16;49.44
62111;BME280;48102;47.526;19.072;2022-08-19T06:55:08;99911.84;;;28.33;49.41
62111;BME280;48102;47.526;19.072;2022-08-19T06:58:10;99913.81;;;28.45;48.22
62111;BME280;48102;47.526;19.072;2022-08-19T07:01:13;99916.72;;;28.50;48.15
62111;BME280;48102;47.526;19.072;2022-08-19T07:04:18;99906.31;;;28.61;47.11
62111;BME280;48102;47.526;19.072;2022-08-19T07:07:22;99917.37;;;28.66;47.02
62111;BME280;48102;47.526;19.072;2022-08-19T07:10:25;99919.31;;;28.79;46.50
62111;BME280;48102;47.526;19.072;2022-08-19T07:13:28;99924.31;;;28.88;46.43
62111;BME280;48102;47.526;19.072;2022-08-19T07:16:30;99926.69;;;29.05;46.97
62111;BME280;48102;47.526;19.072;2022-08-19T07:19:35;99937.34;;;29.19;46.79
62111;BME280;48102;47.526;19.072;2022-08-19T07:22:38;99946.75;;;29.30;46.03
62111;BME280;48102;47.526;19.072;2022-08-19T07:25:41;99947.37;;;29.25;47.71
62111;BME280;48102;47.526;19.072;2022-08-19T07:28:47;99941.31;;;29.23;46.31
62111;BME280;48102;47.526;19.072;2022-08-19T07:31:55;99942.16;;;29.24;46.82
62111;BME280;48102;47.526;19.072;2022-08-19T07:35:01;99938.38;;;29.32;46.98
62111;BME280;48102;47.526;19.072;2022-08-19T07:38:05;99932.34;;;29.49;46.69
62111;BME280;48102;47.526;19.072;2022-08-19T07:41:11;99932.34;;;29.49;45.92
62111;BME280;48102;47.526;19.072;2022-08-19T07:44:15;99930.47;;;29.57;45.52
62111;BME280;48102;47.526;19.072;2022-08-19T07:47:18;99926.09;;;29.69;46.11
62111;BME280;48102;47.526;19.072;2022-08-19T07:50:41;99919.19;;;29.73;43.60
62111;BME280;48102;47.526;19.072;2022-08-19T07:53:44;99926.03;;;29.95;43.34
62111;BME280;48102;47.526;19.072;2022-08-19T07:56:47;99919.53;;;30.10;41.59
62111;BME280;48102;47.526;19.072;2022-08-19T07:59:53;99925.50;;;30.38;41.51
62111;BME280;48102;47.526;19.072;2022-08-19T08:02:56;99919.75;;;30.60;40.46
62111;BME280;48102;47.526;19.072;2022-08-19T08:05:59;99928.44;;;30.82;41.18
62111;BME280;48102;47.526;19.072;2022-08-19T08:09:28;99933.78;;;31.02;40.10
62111;BME280;48102;47.526;19.072;2022-08-19T08:12:35;99927.50;;;31.26;39.54
62111;BME280;48102;47.526;19.072;2022-08-19T08:15:43;99916.50;;;31.64;38.17
62111;BME280;48102;47.526;19.072;2022-08-19T08:18:47;99916.47;;;31.71;38.37
62111;BME280;48102;47.526;19.072;2022-08-19T08:21:55;99924.31;;;31.61;39.08
62111;BME280;48102;47.526;19.072;2022-08-19T08:25:02;99926.81;;;31.87;39.17
62111;BME280;48102;47.526;19.072;2022-08-19T08:28:07;99933.19;;;32.00;38.54
62111;BME280;48102;47.526;19.072;2022-08-19T08:31:19;99932.72;;;32.03;37.33
62111;BME280;48102;47.526;19.072;2022-08-19T08:34:22;99937.19;;;31.97;35.56
62111;BME280;48102;47.526;19.072;2022-08-19T08:37:25;99931.66;;;32.22;36.36
62111;BME280;48102;47.526;19.072;2022-08-19T08:43:53;99918.56;;;32.31;36.71
62111;BME280;48102;47.526;19.072;2022-08-19T08:47:01;99924.44;;;32.64;35.41
62111;BME280;48102;47.526;19.072;2022-08-19T08:50:08;99922.09;;;32.80;34.06
62111;BME280;48102;47.526;19.072;2022-08-19T08:53:17;99920.47;;;33.20;35.08
62111;BME280;48102;47.526;19.072;2022-08-19T08:56:34;99915.97;;;33.26;34.65
62111;BME280;48102;47.526;19.072;2022-08-19T08:59:39;99898.97;;;33.24;34.55
62111;BME280;48102;47.526;19.072;2022-08-19T09:02:44;99890.78;;;33.24;34.53
62111;BME280;48102;47.526;19.072;2022-08-19T09:15:57;99899.84;;;33.71;34.08
62111;BME280;48102;47.526;19.072;2022-08-19T09:19:06;99906.84;;;33.79;33.93
62111;BME280;48102;47.526;19.072;2022-08-19T09:22:12;99900.31;;;33.80;32.47
62111;BME280;48102;47.526;19.072;2022-08-19T09:25:27;99904.13;;;33.91;33.26
62111;BME280;48102;47.526;19.072;2022-08-19T09:28:30;99896.38;;;33.88;31.90
62111;BME280;48102;47.526;19.072;2022-08-19T09:31:33;99890.41;;;34.14;32.75
62111;BME280;48102;47.526;19.072;2022-08-19T09:34:36;99888.34;;;34.33;32.52
62111;BME280;48102;47.526;19.072;2022-08-19T09:37:45;99887.84;;;34.36;31.92
62111;BME280;48102;47.526;19.072;2022-08-19T09:40:48;99879.06;;;34.63;31.41
62111;BME280;48102;47.526;19.072;2022-08-19T09:43:54;99876.12;;;34.81;30.89
62111;BME280;48102;47.526;19.072;2022-08-19T09:46:58;99874.75;;;34.50;30.94
62111;BME280;48102;47.526;19.072;2022-08-19T09:50:04;99874.75;;;34.67;30.31
62111;BME280;48102;47.526;19.072;2022-08-19T09:53:08;99862.56;;;34.58;30.05
62111;BME280;48102;47.526;19.072;2022-08-19T09:56:11;99857.69;;;34.60;29.67
62111;BME280;48102;47.526;19.072;2022-08-19T09:59:14;99858.19;;;35.02;30.23
62111;BME280;48102;47.526;19.072;2022-08-19T10:02:16;99850.78;;;35.19;30.17
62111;BME280;48102;47.526;19.072;2022-08-19T10:05:23;99838.19;;;35.40;29.74
62111;BME280;48102;47.526;19.072;2022-08-19T10:08:46;99845.78;;;35.50;29.03
62111;BME280;48102;47.526;19.072;2022-08-19T10:11:52;99837.38;;;35.57;29.30
62111;BME280;48102;47.526;19.072;2022-08-19T10:14:56;99838.41;;;35.51;28.30
62111;BME280;48102;47.526;19.072;2022-08-19T10:17:59;99838.59;;;35.66;29.98
62111;BME280;48102;47.526;19.072;2022-08-19T10:21:13;99843.78;;;35.62;29.39
62111;BME280;48102;47.526;19.072;2022-08-19T10:24:16;99836.19;;;36.13;28.93
62111;BME280;48102;47.526;19.072;2022-08-19T10:27:20;99837.88;;;36.41;28.73
62111;BME280;48102;47.526;19.072;2022-08-19T10:30:23;99831.59;;;36.68;27.89
62111;BME280;48102;47.526;19.072;2022-08-19T10:33:26;99833.03;;;36.49;28.01
62111;BME280;48102;47.526;19.072;2022-08-19T10:36:50;99828.31;;;36.71;27.45
62111;BME280;48102;47.526;19.072;2022-08-19T10:40:07;99834.25;;;36.58;27.71
62111;BME280;48102;47.526;19.072;2022-08-19T10:43:10;99829.38;;;36.43;27.81
62111;BME280;48102;47.526;19.072;2022-08-19T10:46:14;99825.53;;;36.66;26.88
62111;BME280;48102;47.526;19.072;2022-08-19T10:49:18;99825.94;;;36.80;27.68
62111;BME280;48102;47.526;19.072;2022-08-19T10:52:21;99833.87;;;37.08;25.92
62111;BME280;48102;47.526;19.072;2022-08-19T10:55:40;99832.25;;;36.80;26.51
62111;BME280;48102;47.526;19.072;2022-08-19T10:59:02;99827.16;;;36.62;27.16
62111;BME280;48102;47.526;19.072;2022-08-19T11:02:08;99828.66;;;37.12;27.10
62111;BME280;48102;47.526;19.072;2022-08-19T11:05:15;99831.28;;;37.34;27.94
62111;BME280;48102;47.526;19.072;2022-08-19T11:08:20;99835.25;;;37.11;27.44
62111;BME280;48102;47.526;19.072;2022-08-19T11:11:26;99834.69;;;37.41;27.34
62111;BME280;48102;47.526;19.072;2022-08-19T11:14:31;99823.00;;;37.71;25.95
62111;BME280;48102;47.526;19.072;2022-08-19T11:17:35;99816.25;;;37.89;27.64
62111;BME280;48102;47.526;19.072;2022-08-19T11:20:39;99833.72;;;37.73;26.47
62111;BME280;48102;47.526;19.072;2022-08-19T11:23:41;99829.34;;;37.72;25.15
62111;BME280;48102;47.526;19.072;2022-08-19T11:26:44;99820.19;;;38.13;25.82
62111;BME280;48102;47.526;19.072;2022-08-19T11:29:47;99829.00;;;38.26;25.17
62111;BME280;48102;47.526;19.072;2022-08-19T11:32:50;99822.41;;;38.22;24.95
62111;BME280;48102;47.526;19.072;2022-08-19T11:35:53;99820.81;;;38.46;24.73
62111;BME280;48102;47.526;19.072;2022-08-19T11:38:56;99824.41;;;38.67;24.81
62111;BME280;48102;47.526;19.072;2022-08-19T11:42:00;99821.38;;;38.58;25.01
62111;BME280;48102;47.526;19.072;2022-08-19T11:45:05;99835.97;;;38.59;24.68
62111;BME280;48102;47.526;19.072;2022-08-19T11:48:08;99825.00;;;38.95;24.85
62111;BME280;48102;47.526;19.072;2022-08-19T11:51:14;99805.97;;;39.13;22.96
62111;BME280;48102;47.526;19.072;2022-08-19T11:54:17;99811.16;;;39.46;22.94
62111;BME280;48102;47.526;19.072;2022-08-19T11:57:20;99822.94;;;39.82;23.49
62111;BME280;48102;47.526;19.072;2022-08-19T12:00:23;99801.91;;;39.91;22.75
62111;BME280;48102;47.526;19.072;2022-08-19T12:03:26;99800.28;;;40.40;22.06
62111;BME280;48102;47.526;19.072;2022-08-19T12:06:31;99795.31;;;40.76;21.96
62111;BME280;48102;47.526;19.072;2022-08-19T12:09:36;99793.75;;;41.76;22.90
62111;BME280;48102;47.526;19.072;2022-08-19T12:12:44;99797.41;;;42.52;21.11
62111;BME280;48102;47.526;19.072;2022-08-19T12:15:56;99791.66;;;42.67;19.66
62111;BME280;48102;47.526;19.072;2022-08-19T12:19:00;99780.37;;;43.10;18.19
62111;BME280;48102;47.526;19.072;2022-08-19T12:22:06;99788.94;;;42.62;19.24
62111;BME280;48102;47.526;19.072;2022-08-19T12:25:11;99774.19;;;42.10;19.56
62111;BME280;48102;47.526;19.072;2022-08-19T12:28:14;99786.69;;;42.97;20.72
62111;BME280;48102;47.526;19.072;2022-08-19T12:31:18;99786.97;;;43.14;18.73
62111;BME280;48102;47.526;19.072;2022-08-19T12:34:22;99780.03;;;42.08;19.75
62111;BME280;48102;47.526;19.072;2022-08-19T12:37:24;99787.72;;;43.47;18.64
62111;BME280;48102;47.526;19.072;2022-08-19T12:40:27;99799.47;;;45.83;16.41
62111;BME280;48102;47.526;19.072;2022-08-19T12:43:30;99786.00;;;46.89;16.90
62111;BME280;48102;47.526;19.072;2022-08-19T12:46:33;99781.88;;;48.01;15.67
62111;BME280;48102;47.526;19.072;2022-08-19T12:49:36;99777.63;;;48.58;14.21
62111;BME280;48102;47.526;19.072;2022-08-19T12:52:57;99773.28;;;48.48;13.27
62111;BME280;48102;47.526;19.072;2022-08-19T12:56:00;99759.41;;;48.18;13.53
62111;BME280;48102;47.526;19.072;2022-08-19T12:59:04;99753.66;;;49.39;12.70
62111;BME280;48102;47.526;19.072;2022-08-19T13:02:07;99749.66;;;50.29;12.47
62111;BME280;48102;47.526;19.072;2022-08-19T13:05:13;99749.97;;;51.15;12.34
62111;BME280;48102;47.526;19.072;2022-08-19T13:08:16;99745.50;;;52.36;11.21
62111;BME280;48102;47.526;19.072;2022-08-19T13:11:20;99748.28;;;50.51;12.73
62111;BME280;48102;47.526;19.072;2022-08-19T13:14:26;99737.50;;;47.79;14.71
62111;BME280;48102;47.526;19.072;2022-08-19T13:17:28;99739.69;;;48.15;14.24
62111;BME280;48102;47.526;19.072;2022-08-19T13:20:31;99742.47;;;50.44;12.40
62111;BME280;48102;47.526;19.072;2022-08-19T13:23:35;99748.41;;;51.85;12.15
62111;BME280;48102;47.526;19.072;2022-08-19T13:26:37;99739.66;;;52.67;10.56
62111;BME280;48102;47.526;19.072;2022-08-19T13:29:41;99730.72;;;53.31;10.39
62111;BME280;48102;47.526;19.072;2022-08-19T13:33:03;99736.31;;;52.39;10.62
62111;BME280;48102;47.526;19.072;2022-08-19T13:36:18;99726.97;;;52.15;10.65
62111;BME280;48102;47.526;19.072;2022-08-19T13:39:21;99728.59;;;50.95;12.66
62111;BME280;48102;47.526;19.072;2022-08-19T13:42:26;99723.03;;;51.46;12.08
62111;BME280;48102;47.526;19.072;2022-08-19T13:45:30;99722.41;;;52.27;10.96
62111;BME280;48102;47.526;19.072;2022-08-19T13:48:36;99717.13;;;51.51;12.29
62111;BME280;48102;47.526;19.072;2022-08-19T13:51:39;99707.88;;;52.44;10.39
62111;BME280;48102;47.526;19.072;2022-08-19T13:54:43;99716.81;;;53.45;10.76
62111;BME280;48102;47.526;19.072;2022-08-19T13:57:50;99706.78;;;52.72;9.77
62111;BME280;48102;47.526;19.072;2022-08-19T14:00:53;99686.16;;;50.21;12.09
62111;BME280;48102;47.526;19.072;2022-08-19T14:03:56;99678.16;;;48.23;13.67
62111;BME280;48102;47.526;19.072;2022-08-19T14:06:59;99679.75;;;49.15;12.73
62111;BME280;48102;47.526;19.072;2022-08-19T14:10:04;99674.25;;;48.49;13.95
62111;BME280;48102;47.526;19.072;2022-08-19T14:13:08;99670.38;;;49.48;12.71
62111;BME280;48102;47.526;19.072;2022-08-19T14:16:13;99698.03;;;48.22;14.58
62111;BME280;48102;47.526;19.072;2022-08-19T14:19:16;99703.16;;;46.81;16.35
62111;BME280;48102;47.526;19.072;2022-08-19T14:22:19;99703.44;;;45.80;17.15
62111;BME280;48102;47.526;19.072;2022-08-19T14:25:26;99702.63;;;43.29;19.88
62111;BME280;48102;47.526;19.072;2022-08-19T14:28:30;99705.81;;;44.22;19.47
62111;BME280;48102;47.526;19.072;2022-08-19T14:31:32;99711.75;;;44.07;19.90
62111;BME280;48102;47.526;19.072;2022-08-19T14:34:35;99705.13;;;44.93;18.79
62111;BME280;48102;47.526;19.072;2022-08-19T14:37:40;99689.03;;;46.39;17.48
62111;BME280;48102;47.526;19.072;2022-08-19T14:40:47;99715.97;;;47.29;16.44
62111;BME280;48102;47.526;19.072;2022-08-19T14:43:52;99713.25;;;46.64;17.07
62111;BME280;48102;47.526;19.072;2022-08-19T14:46:55;99698.69;;;44.52;18.97
62111;BME280;48102;47.526;19.072;2022-08-19T14:49:58;99704.97;;;44.98;19.36
62111;BME280;48102;47.526;19.072;2022-08-19T14:53:08;99705.09;;;44.17;19.61
62111;BME280;48102;47.526;19.072;2022-08-19T14:56:17;99710.06;;;41.84;21.54
62111;BME280;48102;47.526;19.072;2022-08-19T14:59:20;99698.44;;;39.34;23.39
62111;BME280;48102;47.526;19.072;2022-08-19T15:02:23;99727.59;;;37.82;24.84
62111;BME280;48102;47.526;19.072;2022-08-19T15:05:37;99721.22;;;36.66;26.26
62111;BME280;48102;47.526;19.072;2022-08-19T15:08:41;99717.28;;;35.98;26.42
62111;BME280;48102;47.526;19.072;2022-08-19T15:11:45;99728.50;;;35.52;26.92
